Tenafly, New Jersey
Current Conditions -  °F | °C
As of 6:51 PM on Saturday 25 Oct 2014 (Local Time) from KTEB Reporting Station
Scattered Clouds Scattered Clouds  
Wind Chill: 62°   Ceiling: Unl
Heat Index: 62°   Visibility: 10mi
Dew Point: 43°   Wind: 8mph
Humidity: 50%   Direction: 220°SW
Pressure: 29.63"   Gusts: NA
Location:  40.93°N, 73.97°W
Report Text: KTEB 252251Z 22007KT 10SM SCT080 17/06 A2963 RMK AO2 SLP034 T01670061
Loading
Personal Weather Stations






























Interactive Weather Map
Tropical Storm Tracking
New forecast layout! Learn more

10-Day Weather Forecast

Advertisements
Track Severe Weather on mobile